Time;durP1;ratioP1;P1;durP2;ratioP2;P2;SDS_P1;SDS_P2;PMS_P1;PMS_P2;Temp;Humidity;BMP_temperature;BMP_pressure;BME280_temperature;BME280_humidity;BME280_pressure;Samples;Min_cycle;Max_cycle;Signal;HPM_P1;HPM_P2
2024/04/09 00:00:52;;;;;;;19.67;6.22;;;18.20;99.90;;;;;;5451602;26;20063;-73
2024/04/09 00:03:18;;;;;;;20.55;5.88;;;18.20;99.90;;;;;;5453130;26;19995;-73
2024/04/09 00:05:44;;;;;;;15.25;5.97;;;18.20;99.90;;;;;;5451954;26;20068;-73
2024/04/09 00:08:12;;;;;;;17.13;5.60;;;18.20;99.90;;;;;;5452671;26;20396;-72
2024/04/09 00:10:39;;;;;;;18.10;5.57;;;18.30;99.90;;;;;;5452647;26;20003;-73
2024/04/09 00:13:05;;;;;;;16.50;5.75;;;18.30;99.90;;;;;;5452706;26;19998;-73
2024/04/09 00:15:31;;;;;;;18.38;5.40;;;18.30;99.90;;;;;;5453072;26;19995;-73
2024/04/09 00:18:11;;;;;;;16.40;5.10;;;18.30;99.90;;;;;;5453177;26;20474;-73
2024/04/09 00:20:38;;;;;;;15.57;5.55;;;18.30;99.90;;;;;;5451081;26;20003;-74
2024/04/09 00:23:04;;;;;;;17.05;4.88;;;18.30;99.90;;;;;;5451569;26;20003;-74
2024/04/09 00:25:30;;;;;;;18.10;5.20;;;18.30;99.90;;;;;;5471616;26;20071;-73
2024/04/09 00:27:55;;;;;;;12.48;4.70;;;18.30;99.90;;;;;;5450605;26;19998;-74
2024/04/09 00:30:22;;;;;;;13.40;5.50;;;18.20;99.90;;;;;;5452823;26;20470;-73
2024/04/09 00:32:51;;;;;;;15.57;5.30;;;18.20;99.90;;;;;;5451616;26;19999;-73
2024/04/09 00:35:23;;;;;;;13.70;5.25;;;18.20;99.90;;;;;;5449873;26;20002;-73
2024/04/09 00:37:54;;;;;;;13.48;5.15;;;18.00;99.90;;;;;;5452136;26;19999;-74
2024/04/09 00:40:26;;;;;;;10.30;4.05;;;18.10;99.90;;;;;;5429388;26;19998;-74
2024/04/09 00:42:52;;;;;;;;;;;18.10;99.90;;;;;;5451064;26;20473;-74
2024/04/09 00:45:19;;;;;;;10.60;4.10;;;18.10;99.90;;;;;;5453034;26;19924;-74
2024/04/09 00:47:46;;;;;;;7.35;3.45;;;18.10;99.90;;;;;;5452806;26;20053;-74
2024/04/09 00:50:13;;;;;;;12.15;3.97;;;18.00;99.90;;;;;;5452967;26;20010;-73
2024/04/09 00:52:42;;;;;;;10.88;4.10;;;17.90;99.90;;;;;;5451602;26;19994;-73
2024/04/09 00:55:11;;;;;;;7.93;4.03;;;17.90;99.90;;;;;;5452456;26;19995;-74
2024/04/09 00:57:39;;;;;;;10.30;3.95;;;17.80;99.90;;;;;;5450979;26;20026;-74
2024/04/09 01:00:08;;;;;;;12.20;4.20;;;17.80;99.90;;;;;;5452768;26;20071;-74
2024/04/09 01:02:33;;;;;;;10.68;4.43;;;17.70;99.90;;;;;;5451025;26;20475;-74
2024/04/09 01:05:00;;;;;;;10.57;4.10;;;17.80;99.90;;;;;;5452396;26;20014;-74
2024/04/09 01:07:27;;;;;;;8.30;4.07;;;17.80;99.90;;;;;;5451482;26;20006;-73
2024/04/09 01:09:53;;;;;;;9.63;4.80;;;17.80;99.90;;;;;;5451245;26;20009;-74
2024/04/09 01:12:18;;;;;;;10.77;4.32;;;17.80;99.90;;;;;;5450624;26;20463;-73
2024/04/09 01:14:45;;;;;;;8.90;4.05;;;17.80;99.90;;;;;;5452232;26;19999;-74
2024/04/09 01:17:10;;;;;;;12.45;4.10;;;17.80;99.90;;;;;;5451448;26;20010;-74
2024/04/09 01:19:36;;;;;;;10.15;4.10;;;17.80;99.90;;;;;;5452107;26;19999;-74
2024/04/09 01:22:04;;;;;;;11.95;3.88;;;17.80;99.90;;;;;;5452222;26;19995;-73
2024/04/09 01:24:32;;;;;;;8.45;3.83;;;17.80;99.90;;;;;;5464447;26;20455;-73
2024/04/09 01:26:58;;;;;;;7.88;3.83;;;17.80;99.90;;;;;;5454499;26;19999;-73
2024/04/09 01:29:24;;;;;;;8.70;3.83;;;17.70;99.90;;;;;;5452322;26;20003;-73
2024/04/09 01:31:49;;;;;;;9.57;3.83;;;17.60;99.90;;;;;;5452161;26;19999;-73
2024/04/09 01:34:16;;;;;;;6.32;3.47;;;17.40;99.90;;;;;;5451443;26;19998;-73
2024/04/09 01:36:45;;;;;;;8.35;3.92;;;17.20;99.90;;;;;;5450055;26;19998;-73
2024/04/09 01:39:14;;;;;;;9.73;3.90;;;17.10;99.90;;;;;;5451291;26;19998;-73
2024/04/09 01:41:41;;;;;;;9.77;3.97;;;17.20;99.90;;;;;;5450025;26;20347;-74
2024/04/09 01:44:07;;;;;;;11.10;4.38;;;17.20;99.90;;;;;;5449764;26;19998;-73
2024/04/09 01:46:33;;;;;;;13.45;4.47;;;17.40;99.90;;;;;;5451799;26;20011;-73
2024/04/09 01:48:59;;;;;;;12.70;3.92;;;17.50;99.90;;;;;;5451885;26;19998;-73
2024/04/09 01:51:25;;;;;;;7.55;3.33;;;17.50;99.90;;;;;;5451604;26;20068;-74
2024/04/09 01:53:51;;;;;;;10.25;4.25;;;17.60;99.90;;;;;;5449011;26;20343;-73
2024/04/09 01:56:17;;;;;;;10.32;3.95;;;17.60;99.90;;;;;;5451298;26;20009;-74
2024/04/09 01:58:43;;;;;;;12.23;3.65;;;17.60;99.90;;;;;;5451456;26;19999;-74
2024/04/09 02:01:12;;;;;;;9.35;4.18;;;17.50;99.90;;;;;;5449837;26;20017;-74
2024/04/09 02:03:39;;;;;;;9.38;3.45;;;17.60;99.90;;;;;;5451908;26;20013;-74
2024/04/09 02:06:06;;;;;;;11.82;3.97;;;17.50;99.90;;;;;;5451101;26;20443;-74
2024/04/09 02:08:32;;;;;;;11.40;3.30;;;17.50;99.90;;;;;;5450717;26;20675;-74
2024/04/09 02:10:59;;;;;;;7.63;2.95;;;17.20;99.90;;;;;;5450210;26;19995;-74
2024/04/09 02:13:25;;;;;;;7.57;2.72;;;17.20;99.90;;;;;;5451506;26;20003;-74
2024/04/09 02:15:52;;;;;;;10.52;3.40;;;17.10;99.90;;;;;;5450879;26;20003;-74
2024/04/09 02:18:18;;;;;;;10.63;3.45;;;17.00;99.90;;;;;;5451512;26;20026;-73
2024/04/09 02:20:44;;;;;;;9.85;3.10;;;17.00;99.90;;;;;;5451381;26;20075;-74
2024/04/09 02:23:10;;;;;;;9.02;2.97;;;16.80;99.90;;;;;;5450530;26;19995;-73
2024/04/09 02:25:36;;;;;;;8.85;2.70;;;16.80;99.90;;;;;;5467724;26;20404;-73
2024/04/09 02:28:02;;;;;;;12.75;3.72;;;16.80;99.90;;;;;;5454392;26;19995;-75
2024/04/09 02:30:28;;;;;;;6.18;2.72;;;16.80;99.90;;;;;;5453597;26;20038;-75
2024/04/09 02:32:54;;;;;;;8.10;2.70;;;16.80;99.90;;;;;;5452066;26;20003;-73
2024/04/09 02:35:20;;;;;;;12.73;2.63;;;16.60;99.90;;;;;;5453951;26;20007;-73
2024/04/09 02:37:47;;;;;;;7.78;3.40;;;16.60;99.90;;;;;;5454372;26;19999;-74
2024/04/09 02:40:15;;;;;;;11.68;3.15;;;16.60;99.90;;;;;;5453915;26;19999;-74
2024/04/09 02:42:44;;;;;;;8.32;3.38;;;16.70;99.90;;;;;;5453396;26;20003;-76
2024/04/09 02:45:10;;;;;;;9.07;3.20;;;16.70;99.90;;;;;;5454925;26;20007;-74
2024/04/09 02:47:37;;;;;;;5.03;2.70;;;16.60;99.90;;;;;;5454834;26;19999;-74
2024/04/09 02:50:03;;;;;;;4.97;2.80;;;16.70;99.90;;;;;;5454416;26;19995;-74
2024/04/09 02:52:32;;;;;;;9.77;2.92;;;16.70;99.90;;;;;;5453315;26;20018;-74
2024/04/09 02:54:58;;;;;;;7.88;2.67;;;16.70;99.90;;;;;;5452891;26;19999;-74
2024/04/09 02:57:24;;;;;;;6.97;2.30;;;16.80;99.90;;;;;;5454153;26;20075;-74
2024/04/09 02:59:53;;;;;;;5.97;2.70;;;16.90;99.90;;;;;;5454345;26;20403;-74
2024/04/09 03:02:19;;;;;;;4.63;2.42;;;17.00;99.90;;;;;;5452511;26;20037;-74
2024/04/09 03:04:45;;;;;;;5.68;2.78;;;17.00;99.90;;;;;;5454222;26;20459;-75
2024/04/09 03:07:11;;;;;;;4.32;2.03;;;17.00;99.90;;;;;;5452395;26;20002;-74
2024/04/09 03:09:37;;;;;;;6.30;1.98;;;17.00;99.90;;;;;;5454818;26;20458;-74
2024/04/09 03:12:03;;;;;;;6.72;2.45;;;16.90;99.90;;;;;;5454266;26;19999;-75
2024/04/09 03:14:29;;;;;;;5.45;2.70;;;16.80;99.90;;;;;;5454028;26;20035;-74
2024/04/09 03:16:55;;;;;;;3.88;2.30;;;16.80;99.90;;;;;;5452338;26;20010;-74
2024/04/09 03:19:20;;;;;;;5.47;1.98;;;16.70;99.90;;;;;;5452369;26;19998;-74
2024/04/09 03:21:46;;;;;;;5.22;1.83;;;16.70;99.90;;;;;;5453917;26;19998;-74
2024/04/09 03:24:12;;;;;;;4.95;2.00;;;16.70;99.90;;;;;;5462410;26;19994;-75
2024/04/09 03:26:38;;;;;;;5.85;2.00;;;16.80;99.90;;;;;;5460918;26;20003;-74
2024/04/09 03:29:03;;;;;;;6.80;2.50;;;16.70;99.90;;;;;;5453843;26;20006;-75
2024/04/09 03:31:29;;;;;;;3.92;2.28;;;16.70;99.90;;;;;;5452017;26;20003;-75
2024/04/09 03:33:56;;;;;;;6.43;2.33;;;16.70;99.90;;;;;;5453134;26;20074;-74
2024/04/09 03:36:21;;;;;;;3.10;1.98;;;16.70;99.90;;;;;;5452462;26;19998;-75
2024/04/09 03:38:47;;;;;;;4.28;1.60;;;16.60;99.90;;;;;;5454176;26;20005;-74
2024/04/09 03:41:13;;;;;;;4.00;1.92;;;16.50;99.90;;;;;;5452765;26;20607;-75
2024/04/09 03:43:39;;;;;;;2.42;2.17;;;16.40;99.90;;;;;;5454000;26;20031;-74
2024/04/09 03:46:16;;;;;;;7.80;2.33;;;16.40;99.90;;;;;;5452751;26;19999;-74
2024/04/09 03:48:43;;;;;;;6.63;2.50;;;16.50;99.90;;;;;;5452723;26;20002;-76
2024/04/09 03:51:10;;;;;;;5.70;1.92;;;16.50;99.90;;;;;;5442998;26;19995;-74
2024/04/09 03:53:38;;;;;;;5.38;2.45;;;16.50;99.90;;;;;;5453968;26;20466;-75
2024/04/09 03:56:09;;;;;;;5.88;2.25;;;16.40;99.90;;;;;;5452566;26;20007;-74
2024/04/09 03:58:42;;;;;;;6.13;2.15;;;16.40;99.90;;;;;;5453796;26;20002;-75
2024/04/09 04:01:08;;;;;;;7.13;2.40;;;16.30;99.90;;;;;;5453304;26;20462;-74
2024/04/09 04:03:35;;;;;;;4.05;2.00;;;16.40;99.90;;;;;;5452283;26;20014;-74
2024/04/09 04:06:01;;;;;;;3.67;2.45;;;16.40;99.90;;;;;;5441635;26;19992;-74
2024/04/09 04:08:29;;;;;;;6.13;2.00;;;16.40;99.90;;;;;;5429007;26;20077;-74
2024/04/09 04:10:59;;;;;;;5.53;2.72;;;16.30;99.90;;;;;;5449778;26;20010;-75
2024/04/09 04:13:29;;;;;;;7.95;3.00;;;16.30;99.90;;;;;;5452581;26;19999;-75
2024/04/09 04:16:06;;;;;;;7.18;3.03;;;16.40;99.90;;;;;;5451973;26;19999;-74
2024/04/09 04:18:37;;;;;;;9.32;3.70;;;16.30;99.90;;;;;;5442834;26;20535;-74
2024/04/09 04:21:08;;;;;;;5.88;3.55;;;16.40;99.90;;;;;;5448046;26;20001;-74
2024/04/09 04:23:34;;;;;;;7.88;4.18;;;16.40;99.90;;;;;;5452264;26;19999;-74
2024/04/09 04:26:19;;;;;;;4.20;3.80;;;16.10;99.90;;;;;;5467150;26;20079;-74
2024/04/09 04:28:46;;;;;;;7.57;3.63;;;16.20;99.90;;;;;;5452914;26;19999;-74
2024/04/09 04:31:20;;;;;;;6.32;3.00;;;16.10;99.90;;;;;;5453285;26;19999;-75
2024/04/09 04:33:47;;;;;;;6.43;3.70;;;16.10;99.90;;;;;;5452590;26;20368;-73
2024/04/09 04:36:14;;;;;;;5.82;2.50;;;16.20;99.90;;;;;;5452554;26;19999;-73
2024/04/09 04:38:40;;;;;;;8.02;2.97;;;16.20;99.90;;;;;;5451612;26;20079;-73
2024/04/09 04:41:06;;;;;;;9.27;2.78;;;16.10;99.90;;;;;;5453084;26;20438;-73
2024/04/09 04:43:33;;;;;;;9.02;2.90;;;16.10;99.90;;;;;;5453235;26;20543;-73
2024/04/09 04:45:59;;;;;;;3.40;2.53;;;16.20;99.90;;;;;;5449533;26;20335;-73
2024/04/09 04:48:25;;;;;;;4.22;2.70;;;16.20;99.90;;;;;;5451879;26;19998;-73
2024/04/09 04:50:52;;;;;;;3.05;2.40;;;16.10;99.90;;;;;;5451464;26;20074;-73
2024/04/09 04:53:18;;;;;;;3.97;2.50;;;16.10;99.90;;;;;;5452919;26;20039;-76
2024/04/09 04:55:44;;;;;;;5.25;2.58;;;15.90;99.90;;;;;;5451050;26;20039;-73
2024/04/09 04:58:10;;;;;;;4.18;2.00;;;15.80;99.90;;;;;;5451076;26;20006;-73
2024/04/09 05:00:36;;;;;;;1.65;1.48;;;15.60;99.90;;;;;;5452686;26;20010;-74
2024/04/09 05:03:02;;;;;;;3.28;1.90;;;15.60;99.90;;;;;;5434511;26;20013;-74
2024/04/09 05:05:28;;;;;;;3.08;1.17;;;15.60;99.90;;;;;;5451020;26;20478;-74
2024/04/09 05:07:55;;;;;;;3.55;1.40;;;15.50;99.90;;;;;;5415242;26;20109;-74
2024/04/09 05:10:21;;;;;;;3.45;1.60;;;15.50;99.90;;;;;;5414182;26;20414;-73
2024/04/09 05:12:51;;;;;;;7.53;1.63;;;15.50;99.90;;;;;;5419436;26;21057;-75
2024/04/09 05:15:18;;;;;;;6.13;1.30;;;15.50;99.90;;;;;;5421835;26;20470;-74
2024/04/09 05:17:45;;;;;;;6.45;1.00;;;15.40;99.90;;;;;;5416744;26;19999;-75
2024/04/09 05:20:14;;;;;;;1.75;0.75;;;15.30;99.90;;;;;;5421096;26;20018;-75
2024/04/09 05:22:47;;;;;;;3.03;1.23;;;15.20;99.90;;;;;;5426986;26;19999;-74
2024/04/09 05:25:15;;;;;;;6.75;1.10;;;15.20;99.90;;;;;;5428271;26;20509;-74
2024/04/09 05:27:41;;;;;;;5.18;0.98;;;15.10;99.90;;;;;;5415151;26;20440;-74
2024/04/09 05:30:09;;;;;;;2.30;1.10;;;15.00;99.90;;;;;;5424100;26;20346;-74
2024/04/09 05:32:35;;;;;;;3.50;1.23;;;15.00;99.90;;;;;;5422681;26;20008;-74
2024/04/09 05:35:02;;;;;;;5.38;1.40;;;14.90;99.90;;;;;;5425112;26;20013;-74
2024/04/09 05:37:28;;;;;;;4.10;1.50;;;14.90;99.90;;;;;;5433943;26;20013;-75
2024/04/09 05:39:54;;;;;;;3.28;0.90;;;14.90;99.90;;;;;;5423998;26;20447;-74
2024/04/09 05:42:20;;;;;;;5.65;1.40;;;14.90;99.90;;;;;;5425522;26;19994;-74
2024/04/09 05:44:47;;;;;;;5.38;1.48;;;14.80;99.90;;;;;;5427902;26;20027;-74
2024/04/09 05:47:13;;;;;;;7.63;1.40;;;14.80;99.90;;;;;;5429544;26;20088;-74
2024/04/09 05:49:39;;;;;;;5.93;1.23;;;14.80;99.90;;;;;;5423685;26;20014;-73
2024/04/09 05:52:05;;;;;;;5.88;1.38;;;14.80;99.90;;;;;;5423083;26;20058;-74
2024/04/09 05:54:31;;;;;;;5.53;1.20;;;14.90;99.90;;;;;;5423261;26;20003;-74
2024/04/09 05:56:57;;;;;;;6.53;1.55;;;14.90;99.90;;;;;;5422533;26;20006;-74
2024/04/09 05:59:23;;;;;;;4.72;1.30;;;15.00;99.90;;;;;;5428527;26;19999;-75
2024/04/09 06:01:50;;;;;;;6.97;1.42;;;15.00;99.90;;;;;;5424006;26;21729;-74
2024/04/09 06:04:16;;;;;;;3.83;1.00;;;14.90;99.90;;;;;;5424280;26;20002;-74
2024/04/09 06:06:43;;;;;;;9.20;1.70;;;15.00;99.90;;;;;;5431312;26;19999;-73
2024/04/09 06:09:09;;;;;;;7.18;1.25;;;14.90;99.90;;;;;;5421780;26;20010;-75
2024/04/09 06:11:35;;;;;;;5.32;1.35;;;15.00;99.90;;;;;;5421809;26;20007;-76
2024/04/09 06:14:01;;;;;;;5.05;1.33;;;15.10;99.90;;;;;;5423027;26;19999;-77
2024/04/09 06:16:27;;;;;;;6.85;1.48;;;15.00;99.90;;;;;;5420809;26;20452;-78
2024/04/09 06:18:53;;;;;;;5.78;1.80;;;14.90;99.90;;;;;;5420427;26;20447;-76
2024/04/09 06:21:18;;;;;;;5.10;1.20;;;14.90;99.90;;;;;;5461143;26;20435;-76
2024/04/09 06:23:47;;;;;;;7.65;1.30;;;14.90;99.90;;;;;;5419651;26;20026;-77
2024/04/09 06:26:14;;;;;;;4.90;1.20;;;14.90;99.90;;;;;;5415160;26;20039;-74
2024/04/09 06:28:40;;;;;;;6.63;1.60;;;15.00;99.90;;;;;;5416668;26;20136;-75
2024/04/09 06:31:06;;;;;;;5.40;1.27;;;15.00;99.90;;;;;;5419351;26;20006;-82
2024/04/09 06:33:32;;;;;;;3.72;1.10;;;14.90;99.90;;;;;;5415146;26;20070;-78
2024/04/09 06:35:58;;;;;;;5.07;1.15;;;15.00;99.90;;;;;;5421034;26;20021;-76
2024/04/09 06:38:23;;;;;;;3.92;1.00;;;14.80;99.90;;;;;;5423704;26;20152;-80
2024/04/09 06:40:53;;;;;;;4.78;1.27;;;14.70;99.90;;;;;;5416207;26;20003;-79
2024/04/09 06:43:20;;;;;;;6.65;1.45;;;14.70;99.90;;;;;;5421846;26;20012;-76
2024/04/09 06:45:46;;;;;;;7.43;1.10;;;14.50;99.90;;;;;;5424527;26;20014;-79
2024/04/09 06:48:12;;;;;;;5.35;1.30;;;14.40;99.90;;;;;;5418762;26;19999;-82
2024/04/09 06:50:37;;;;;;;4.88;1.40;;;14.30;99.90;;;;;;5417278;26;20416;-73
2024/04/09 06:53:03;;;;;;;3.35;1.10;;;14.30;99.90;;;;;;5417342;26;19996;-74
2024/04/09 06:55:29;;;;;;;5.65;1.20;;;14.30;99.90;;;;;;5418366;26;20023;-74
2024/04/09 06:57:55;;;;;;;10.05;1.55;;;14.30;99.90;;;;;;5415660;26;20015;-73
2024/04/09 07:00:21;;;;;;;5.22;1.10;;;14.40;99.90;;;;;;5418947;26;20003;-76
2024/04/09 07:02:47;;;;;;;5.75;1.15;;;14.20;99.90;;;;;;5414139;26;20004;-78
2024/04/09 07:05:13;;;;;;;7.22;1.60;;;14.20;99.90;;;;;;5419883;26;20014;-74
2024/04/09 07:07:39;;;;;;;8.10;1.50;;;14.30;99.90;;;;;;5408498;26;20004;-83
2024/04/09 07:10:05;;;;;;;5.90;1.20;;;14.20;99.90;;;;;;5426836;26;20338;-79
2024/04/09 07:12:32;;;;;;;8.32;1.58;;;14.20;99.90;;;;;;5416921;26;20090;-77
2024/04/09 07:14:59;;;;;;;4.43;1.17;;;14.30;99.90;;;;;;5420297;26;20018;-79
2024/04/09 07:17:25;;;;;;;9.70;1.38;;;14.20;99.90;;;;;;5429255;26;19996;-77
2024/04/09 07:19:55;;;;;;;4.68;1.23;;;14.20;99.90;;;;;;5435900;26;20443;-79
2024/04/09 07:22:21;;;;;;;8.38;1.52;;;14.20;99.90;;;;;;5496725;26;19996;-80
2024/04/09 07:24:47;;;;;;;4.85;1.70;;;14.30;99.90;;;;;;5426060;26;20028;-79
2024/04/09 07:27:13;;;;;;;4.47;1.27;;;14.20;99.90;;;;;;5416896;26;19999;-79
2024/04/09 07:29:38;;;;;;;5.53;1.38;;;14.30;99.90;;;;;;5423861;26;20084;-79
2024/04/09 07:32:07;;;;;;;8.73;1.75;;;14.60;99.90;;;;;;5427802;26;20014;-80
2024/04/09 07:34:33;;;;;;;6.65;1.40;;;14.70;99.90;;;;;;5432907;26;20002;-79
2024/04/09 07:36:59;;;;;;;7.68;1.30;;;14.80;99.90;;;;;;5431248;26;20017;-79
2024/04/09 07:39:24;;;;;;;7.13;1.52;;;14.80;99.90;;;;;;5427948;26;19995;-78
2024/04/09 07:41:51;;;;;;;6.65;1.40;;;14.80;99.90;;;;;;5426910;26;20007;-78
2024/04/09 07:44:17;;;;;;;4.32;1.27;;;14.90;99.90;;;;;;5431425;26;20070;-78
2024/04/09 07:46:48;;;;;;;4.53;1.20;;;14.80;99.90;;;;;;5422820;26;21219;-78
2024/04/09 07:49:16;;;;;;;5.47;1.33;;;14.70;99.90;;;;;;5422712;26;20574;-77
2024/04/09 07:51:43;;;;;;;8.88;1.73;;;14.70;99.90;;;;;;5422609;26;20462;-78
2024/04/09 07:54:09;;;;;;;4.50;1.40;;;14.90;99.90;;;;;;5487756;26;20014;-76
2024/04/09 07:56:35;;;;;;;8.88;2.40;;;14.80;99.90;;;;;;5424459;26;19999;-78
2024/04/09 07:59:01;;;;;;;11.05;1.65;;;14.80;99.90;;;;;;5425436;26;20388;-77
2024/04/09 08:01:27;;;;;;;13.25;1.80;;;14.70;99.90;;;;;;5424568;26;20010;-78
2024/04/09 08:03:53;;;;;;;8.57;1.88;;;14.60;99.90;;;;;;5421509;26;20003;-80
2024/04/09 08:06:18;;;;;;;5.18;1.38;;;14.50;99.90;;;;;;5422337;26;20002;-79
2024/04/09 08:08:44;;;;;;;6.78;1.38;;;14.40;99.90;;;;;;5420271;26;19999;-78
2024/04/09 08:11:11;;;;;;;7.22;1.70;;;14.40;99.90;;;;;;5418176;26;20003;-78
2024/04/09 08:13:37;;;;;;;6.00;1.15;;;14.40;99.90;;;;;;5414482;26;20004;-78
2024/04/09 08:16:03;;;;;;;3.53;1.10;;;14.40;99.90;;;;;;5419033;26;20383;-78
2024/04/09 08:18:29;;;;;;;5.93;1.38;;;14.30;99.90;;;;;;5419071;26;20026;-77
2024/04/09 08:20:55;;;;;;;11.55;1.70;;;14.40;99.90;;;;;;5421351;26;19995;-77
2024/04/09 08:23:21;;;;;;;6.63;1.70;;;14.50;99.90;;;;;;5418302;26;20011;-79
2024/04/09 08:25:49;;;;;;;9.85;1.40;;;14.70;99.90;;;;;;5419211;26;20019;-80
2024/04/09 08:28:18;;;;;;;9.75;1.50;;;14.60;99.90;;;;;;5431396;26;20003;-75
2024/04/09 08:30:45;;;;;;;7.05;1.50;;;14.50;99.90;;;;;;5422046;26;20003;-76
2024/04/09 08:33:12;;;;;;;5.68;1.45;;;14.40;99.90;;;;;;5418506;26;20022;-76
2024/04/09 08:35:42;;;;;;;6.35;1.48;;;14.50;99.90;;;;;;5426675;26;20004;-78
2024/04/09 08:38:08;;;;;;;5.70;1.40;;;14.40;99.90;;;;;;5417577;26;20447;-77
2024/04/09 08:40:34;;;;;;;7.13;1.52;;;14.30;99.90;;;;;;5429200;26;19998;-77
2024/04/09 08:43:00;;;;;;;5.32;1.58;;;14.40;99.90;;;;;;5426433;26;20008;-77
2024/04/09 08:45:27;;;;;;;6.35;1.33;;;14.30;99.90;;;;;;5426557;26;20001;-76
2024/04/09 08:47:55;;;;;;;5.78;1.55;;;14.30;99.90;;;;;;5425014;26;19999;-77
2024/04/09 08:50:21;;;;;;;6.65;1.50;;;14.40;99.90;;;;;;5426776;26;20025;-77
2024/04/09 08:52:47;;;;;;;5.28;1.20;;;14.40;99.90;;;;;;5421258;26;20010;-76
2024/04/09 08:55:15;;;;;;;7.07;1.67;;;14.50;99.90;;;;;;5425257;26;19995;-76
2024/04/09 08:57:41;;;;;;;9.48;1.35;;;14.80;99.90;;;;;;5427049;26;20011;-76
2024/04/09 09:00:07;;;;;;;6.22;1.23;;;14.90;99.90;;;;;;5422572;26;20013;-75
2024/04/09 09:02:36;;;;;;;5.00;1.23;;;15.00;99.90;;;;;;5431882;26;19994;-76
2024/04/09 09:05:03;;;;;;;9.65;1.70;;;14.90;99.90;;;;;;5426772;26;20020;-77
2024/04/09 09:07:29;;;;;;;3.65;1.60;;;14.70;99.90;;;;;;5426116;26;20002;-76
2024/04/09 09:10:05;;;;;;;5.57;1.42;;;14.80;99.90;;;;;;5429720;26;20054;-76
2024/04/09 09:12:30;;;;;;;7.85;1.27;;;14.90;99.90;;;;;;5423235;26;19999;-77
2024/04/09 09:15:00;;;;;;;5.22;1.15;;;15.10;99.90;;;;;;5418337;26;20102;-75
2024/04/09 09:17:29;;;;;;;2.83;1.25;;;15.30;99.90;;;;;;5423230;26;20004;-76
2024/04/09 09:20:09;;;;;;;4.75;1.27;;;15.40;99.90;;;;;;5418527;26;20002;-74
2024/04/09 09:22:47;;;;;;;7.07;1.55;;;15.40;99.90;;;;;;5423203;26;19999;-75
2024/04/09 09:25:16;;;;;;;3.80;1.13;;;15.40;99.90;;;;;;5421406;26;20052;-76
2024/04/09 09:27:45;;;;;;;10.93;1.60;;;15.50;99.90;;;;;;5418406;26;20000;-77
2024/04/09 09:30:13;;;;;;;5.90;1.25;;;15.70;99.90;;;;;;5428808;26;20010;-77
2024/04/09 09:32:45;;;;;;;5.75;1.63;;;16.00;99.90;;;;;;5484764;26;20565;-77
2024/04/09 09:35:17;;;;;;;6.45;1.45;;;15.80;99.90;;;;;;5426917;26;20017;-77
2024/04/09 09:37:47;;;;;;;7.47;1.37;;;16.00;99.90;;;;;;5424775;26;20022;-76
2024/04/09 09:40:15;;;;;;;6.68;1.65;;;16.00;99.90;;;;;;5422222;26;20003;-77
2024/04/09 09:42:46;;;;;;;5.90;1.90;;;15.80;99.90;;;;;;5429378;26;20000;-77
2024/04/09 09:45:13;;;;;;;7.07;1.60;;;15.90;99.90;;;;;;5424751;26;20017;-76
2024/04/09 09:47:40;;;;;;;4.32;1.20;;;15.80;99.90;;;;;;5416611;26;20004;-77
2024/04/09 09:50:08;;;;;;;5.45;1.73;;;15.70;99.90;;;;;;5417217;26;20002;-75
2024/04/09 09:52:34;;;;;;;6.22;1.58;;;15.60;99.90;;;;;;5419582;26;20010;-75
2024/04/09 09:55:04;;;;;;;4.65;1.17;;;15.70;99.90;;;;;;5417909;26;20734;-72
2024/04/09 09:57:34;;;;;;;6.63;1.38;;;15.60;99.90;;;;;;5420089;26;19999;-71
2024/04/09 10:00:09;;;;;;;4.85;1.30;;;15.50;99.90;;;;;;5421109;26;19995;-76
2024/04/09 10:02:37;;;;;;;6.68;1.50;;;15.50;99.90;;;;;;5485373;25;19995;-77
2024/04/09 10:05:04;;;;;;;5.20;1.73;;;15.60;99.90;;;;;;5425029;26;20078;-78
2024/04/09 10:07:31;;;;;;;7.82;1.80;;;15.70;99.90;;;;;;5423864;26;20012;-75
2024/04/09 10:09:57;;;;;;;4.55;1.30;;;15.70;99.90;;;;;;5425452;26;20002;-76
2024/04/09 10:12:24;;;;;;;6.85;1.25;;;15.70;99.90;;;;;;5425440;26;19999;-78
2024/04/09 10:15:05;;;;;;;7.53;1.40;;;15.70;99.90;;;;;;5426319;26;20443;-77
2024/04/09 10:17:53;;;;;;;5.13;1.08;;;16.00;99.90;;;;;;5467283;26;20014;-77
2024/04/09 10:20:30;;;;;;;4.18;1.20;;;16.10;99.90;;;;;;5427995;26;20014;-76
2024/04/09 10:23:03;;;;;;;5.25;1.17;;;16.00;99.90;;;;;;5423085;26;20014;-77
2024/04/09 10:25:39;;;;;;;;;;;16.10;99.90;;;;;;5435294;26;20010;-75
2024/04/09 10:28:10;;;;;;;4.18;1.17;;;16.30;99.90;;;;;;5422833;26;20365;-75
2024/04/09 10:30:40;;;;;;;7.28;1.45;;;16.30;99.90;;;;;;5435025;26;19999;-76
2024/04/09 10:33:07;;;;;;;7.72;2.00;;;16.40;99.90;;;;;;5421730;26;19998;-75
2024/04/09 10:35:33;;;;;;;3.40;1.27;;;16.80;99.90;;;;;;5416290;26;20012;-78
2024/04/09 10:38:06;;;;;;;4.45;1.20;;;16.80;99.90;;;;;;5424114;26;20013;-76
2024/04/09 10:40:36;;;;;;;3.97;1.10;;;16.70;99.90;;;;;;5422903;26;20503;-75
2024/04/09 10:43:06;;;;;;;4.13;1.35;;;17.10;99.90;;;;;;5417397;26;20007;-76
2024/04/09 10:45:32;;;;;;;5.32;1.10;;;17.00;99.90;;;;;;5417069;26;20000;-82
2024/04/09 10:47:59;;;;;;;9.25;1.35;;;17.00;99.90;;;;;;5422537;26;20059;-77
2024/04/09 10:50:26;;;;;;;4.72;1.15;;;17.10;99.90;;;;;;5425005;26;19992;-77
2024/04/09 10:52:52;;;;;;;4.70;0.88;;;16.90;99.90;;;;;;5432172;26;20018;-79
2024/04/09 10:55:18;;;;;;;3.15;1.13;;;16.90;99.90;;;;;;5430152;26;20007;-75
2024/04/09 10:57:51;;;;;;;3.97;1.17;;;16.50;99.90;;;;;;5422374;26;20079;-77
2024/04/09 11:00:18;;;;;;;3.00;1.02;;;16.30;99.90;;;;;;5426727;26;19999;-77
2024/04/09 11:02:44;;;;;;;5.40;1.00;;;16.10;99.90;;;;;;5427924;26;19998;-77
2024/04/09 11:05:11;;;;;;;2.72;0.90;;;16.10;99.90;;;;;;5423474;26;20000;-77
2024/04/09 11:07:38;;;;;;;3.85;1.42;;;16.00;99.90;;;;;;5425410;26;21458;-79
2024/04/09 11:10:13;;;;;;;3.67;1.13;;;16.00;99.90;;;;;;5427708;26;20023;-79
2024/04/09 11:12:52;;;;;;;7.35;1.13;;;16.00;99.90;;;;;;5429207;26;20009;-78
2024/04/09 11:15:18;;;;;;;6.10;1.08;;;16.00;99.90;;;;;;5428282;26;20441;-79
2024/04/09 11:17:44;;;;;;;8.43;1.80;;;15.90;99.90;;;;;;5431573;26;20047;-78
2024/04/09 11:20:15;;;;;;;7.72;2.47;;;15.80;99.90;;;;;;5427121;26;19999;-77
2024/04/09 11:22:43;;;;;;;5.82;1.60;;;15.90;99.90;;;;;;5431271;26;20015;-78
2024/04/09 11:25:13;;;;;;;4.82;1.27;;;15.80;99.90;;;;;;5428300;26;20011;-78
2024/04/09 11:27:40;;;;;;;5.15;1.80;;;15.70;99.90;;;;;;5431586;26;20062;-78
2024/04/09 11:30:11;;;;;;;4.18;1.00;;;15.70;99.90;;;;;;5427940;26;20005;-78
2024/04/09 11:32:38;;;;;;;4.93;1.00;;;15.60;99.90;;;;;;5470202;26;20071;-78
2024/04/09 11:35:16;;;;;;;5.85;0.98;;;15.70;99.90;;;;;;5430771;26;20002;-79
2024/04/09 11:37:55;;;;;;;4.82;1.38;;;15.70;99.90;;;;;;5423534;26;20076;-79
2024/04/09 11:40:26;;;;;;;3.88;1.25;;;15.60;99.90;;;;;;5438684;26;20006;-77
2024/04/09 11:42:53;;;;;;;4.53;1.10;;;15.70;99.90;;;;;;5430723;26;20068;-81
2024/04/09 11:45:20;;;;;;;4.47;0.90;;;15.70;99.90;;;;;;5430332;26;20629;-78
2024/04/09 11:47:46;;;;;;;4.88;1.02;;;15.70;99.90;;;;;;5429666;26;20012;-79
2024/04/09 11:50:12;;;;;;;6.25;1.30;;;15.70;99.90;;;;;;5425679;26;20489;-80
2024/04/09 11:52:38;;;;;;;5.07;0.90;;;15.70;99.90;;;;;;5425545;26;20339;-79
2024/04/09 11:55:04;;;;;;;7.03;1.38;;;15.80;99.90;;;;;;5433944;26;20092;-80
2024/04/09 11:57:30;;;;;;;3.95;0.90;;;16.00;99.90;;;;;;5422625;26;20003;-79
2024/04/09 11:59:56;;;;;;;4.90;0.90;;;15.90;99.90;;;;;;5421858;26;20022;-80
2024/04/09 12:02:22;;;;;;;5.35;1.38;;;16.00;99.90;;;;;;5430338;26;20444;-79
2024/04/09 12:04:48;;;;;;;4.10;1.08;;;16.00;99.90;;;;;;5432327;26;20006;-82
2024/04/09 12:07:13;;;;;;;4.70;1.00;;;15.90;99.90;;;;;;5425735;26;20104;-79
2024/04/09 12:09:40;;;;;;;4.68;0.88;;;15.90;99.90;;;;;;5430664;26;20007;-81
2024/04/09 12:12:08;;;;;;;4.30;0.75;;;15.60;99.90;;;;;;5426531;26;20003;-80
2024/04/09 12:14:37;;;;;;;2.72;0.93;;;15.70;99.90;;;;;;5429414;26;20004;-80
2024/04/09 12:17:04;;;;;;;5.70;0.73;;;15.70;99.90;;;;;;5428183;26;20018;-80
2024/04/09 12:19:29;;;;;;;4.32;1.15;;;15.80;99.90;;;;;;5420446;26;20014;-81
2024/04/09 12:21:55;;;;;;;5.90;1.27;;;15.70;99.90;;;;;;5426946;26;20591;-81
2024/04/09 12:24:23;;;;;;;4.97;1.35;;;15.80;99.90;;;;;;5423268;26;20000;-80
2024/04/09 12:26:50;;;;;;;5.25;1.40;;;15.60;99.90;;;;;;5427395;26;20011;-80
2024/04/09 12:29:16;;;;;;;3.60;1.10;;;15.60;99.90;;;;;;5426082;26;19998;-80
2024/04/09 12:31:43;;;;;;;5.28;0.90;;;15.60;99.90;;;;;;5424283;26;20463;-79
2024/04/09 12:34:09;;;;;;;6.03;1.20;;;15.60;99.90;;;;;;5428417;26;20013;-79
2024/04/09 12:36:35;;;;;;;5.38;1.17;;;15.60;99.90;;;;;;5428028;26;20051;-78
2024/04/09 12:39:02;;;;;;;3.35;0.93;;;15.70;99.90;;;;;;5416974;26;20080;-79
2024/04/09 12:41:29;;;;;;;2.72;1.08;;;15.50;99.90;;;;;;5424501;26;20456;-79
2024/04/09 12:43:54;;;;;;;3.97;1.10;;;15.50;99.90;;;;;;5423983;26;20436;-78
2024/04/09 12:46:20;;;;;;;8.88;1.30;;;15.40;99.90;;;;;;5420878;26;20010;-79